createdAt,value
2022-09-30T00:01:30.304Z,26.63
2022-09-30T00:03:58.482Z,25.00
2022-09-30T00:06:26.382Z,27.43
2022-09-30T00:08:54.573Z,24.57
2022-09-30T00:11:25.253Z,25.47
2022-09-30T00:13:53.736Z,24.23
2022-09-30T00:16:23.569Z,25.67
2022-09-30T00:18:51.577Z,24.13
2022-09-30T00:21:19.132Z,25.43
2022-09-30T00:23:47.047Z,24.60
2022-09-30T00:36:44.429Z,26.50
2022-09-30T00:39:14.673Z,24.73
2022-09-30T00:41:43.165Z,31.57
2022-09-30T00:44:29.385Z,26.30
2022-09-30T00:46:58.816Z,26.40
2022-09-30T00:49:26.842Z,26.97
2022-09-30T00:51:56.993Z,25.87
2022-09-30T00:54:30.172Z,27.50
2022-09-30T00:56:59.099Z,24.53
2022-09-30T00:59:28.150Z,26.27
2022-09-30T01:01:56.458Z,25.70
2022-09-30T01:04:25.443Z,29.80
2022-09-30T01:06:53.225Z,27.20
2022-09-30T01:09:22.490Z,34.00
2022-09-30T01:11:50.266Z,25.30
2022-09-30T01:14:19.733Z,29.57
2022-09-30T01:16:52.452Z,29.50
2022-09-30T01:19:35.906Z,30.07
2022-09-30T01:22:09.169Z,31.83
2022-09-30T01:24:45.358Z,32.83
2022-09-30T01:27:36.499Z,31.57
2022-09-30T01:30:15.861Z,27.10
2022-09-30T01:33:01.871Z,30.50
2022-09-30T01:35:36.693Z,23.27
2022-09-30T01:38:10.180Z,31.57
2022-09-30T01:40:41.825Z,28.40
2022-09-30T01:43:12.769Z,25.27
2022-09-30T01:45:43.395Z,26.43
2022-09-30T01:48:16.142Z,25.80
2022-09-30T01:50:45.725Z,24.80
2022-09-30T01:53:16.633Z,27.87
2022-09-30T01:55:49.898Z,26.10
2022-09-30T01:58:20.225Z,26.47
2022-09-30T02:00:51.013Z,23.67
2022-09-30T02:03:22.705Z,26.70
2022-09-30T02:05:53.931Z,27.47
2022-09-30T02:08:24.509Z,25.70
2022-09-30T02:10:56.131Z,23.23
2022-09-30T02:13:30.965Z,26.07
2022-09-30T02:16:01.098Z,24.10
2022-09-30T02:18:35.194Z,21.97
2022-09-30T02:21:04.617Z,23.27
2022-09-30T02:23:34.070Z,22.60
2022-09-30T02:26:05.916Z,24.17
2022-09-30T02:28:34.089Z,24.10
2022-09-30T02:31:03.368Z,24.30
2022-09-30T02:33:35.587Z,23.37
2022-09-30T02:36:07.302Z,20.43
2022-09-30T02:38:37.523Z,26.30
2022-09-30T02:41:07.143Z,23.50
2022-09-30T02:43:35.933Z,24.67
2022-09-30T02:46:06.917Z,27.50
2022-09-30T02:48:39.702Z,30.17
2022-09-30T02:51:11.366Z,23.40
2022-09-30T02:53:43.295Z,25.27
2022-09-30T02:56:15.589Z,26.70
2022-09-30T02:58:43.964Z,25.60
2022-09-30T03:01:12.135Z,28.50
2022-09-30T03:03:43.714Z,25.00
2022-09-30T03:06:11.788Z,24.10
2022-09-30T03:08:39.441Z,25.40
2022-09-30T03:11:07.725Z,23.60
2022-09-30T03:13:48.538Z,22.50
2022-09-30T03:16:20.415Z,22.90
2022-09-30T03:18:58.672Z,23.90
2022-09-30T03:21:33.672Z,23.13
2022-09-30T03:24:17.484Z,24.00
2022-09-30T03:26:50.322Z,25.00
2022-09-30T03:29:21.671Z,25.00
2022-09-30T03:31:55.191Z,21.47
2022-09-30T03:34:27.793Z,22.63
2022-09-30T03:37:04.196Z,25.40
2022-09-30T03:39:56.401Z,22.63
2022-09-30T03:42:27.030Z,26.73
2022-09-30T03:44:59.866Z,22.37
2022-09-30T03:47:29.586Z,26.57
2022-09-30T03:50:00.855Z,26.83
2022-09-30T03:52:30.884Z,23.37
2022-09-30T03:54:59.762Z,23.60
2022-09-30T03:57:28.989Z,24.03
2022-09-30T03:59:56.674Z,24.13
2022-09-30T04:02:24.729Z,24.90
2022-09-30T04:04:52.566Z,23.67
2022-09-30T04:07:21.411Z,22.20
2022-09-30T04:09:49.462Z,20.30
2022-09-30T04:12:17.158Z,25.27
2022-09-30T04:14:44.732Z,21.90
2022-09-30T04:17:12.239Z,23.00
2022-09-30T04:19:40.478Z,27.73
2022-09-30T04:22:08.119Z,32.07
2022-09-30T04:24:36.996Z,27.87
2022-09-30T04:27:04.866Z,24.47
2022-09-30T04:29:32.400Z,28.40
2022-09-30T04:31:59.916Z,27.43
2022-09-30T04:34:27.975Z,28.20
2022-09-30T04:36:55.919Z,29.00
2022-09-30T04:39:23.639Z,26.47
2022-09-30T04:41:54.229Z,30.27
2022-09-30T04:44:22.514Z,25.07
2022-09-30T04:46:50.628Z,25.57
2022-09-30T04:49:18.660Z,26.23
2022-09-30T04:51:46.318Z,22.90
2022-09-30T04:54:14.306Z,26.97
2022-09-30T04:56:42.177Z,24.33
2022-09-30T04:59:11.051Z,24.57
2022-09-30T05:01:39.250Z,25.33
2022-09-30T05:04:08.404Z,28.10
2022-09-30T05:06:36.646Z,26.10
2022-09-30T05:09:04.260Z,26.67
2022-09-30T05:11:32.337Z,29.27
2022-09-30T05:14:00.066Z,25.90
2022-09-30T05:16:28.937Z,26.10
2022-09-30T05:18:56.891Z,23.63
2022-09-30T05:21:24.492Z,26.20
2022-09-30T05:23:54.543Z,32.60
2022-09-30T05:26:22.502Z,27.00
2022-09-30T05:28:50.060Z,23.00
2022-09-30T05:31:17.786Z,22.67
2022-09-30T05:33:47.005Z,31.67
2022-09-30T05:36:15.131Z,25.57
2022-09-30T05:38:42.661Z,26.27
2022-09-30T05:41:11.490Z,26.83
2022-09-30T05:43:39.336Z,29.83
2022-09-30T05:46:07.149Z,31.53
2022-09-30T05:48:35.206Z,26.60
2022-09-30T05:51:04.403Z,31.23
2022-09-30T05:53:32.853Z,27.10
2022-09-30T05:56:00.872Z,29.43
2022-09-30T05:58:28.647Z,27.10
2022-09-30T06:00:56.122Z,28.60
2022-09-30T06:03:24.092Z,24.90
2022-09-30T06:05:56.299Z,30.90
2022-09-30T06:08:25.675Z,30.33
2022-09-30T06:10:53.348Z,32.13
2022-09-30T06:13:21.289Z,41.27
2022-09-30T06:15:57.136Z,32.87
2022-09-30T06:18:25.461Z,46.83
2022-09-30T06:20:54.487Z,34.67
2022-09-30T06:23:22.115Z,33.67
2022-09-30T06:25:52.239Z,35.13
2022-09-30T06:28:20.312Z,44.03
2022-09-30T06:30:49.008Z,39.93
2022-09-30T06:33:17.375Z,38.93
2022-09-30T06:35:47.216Z,37.60
2022-09-30T06:38:16.564Z,35.23
2022-09-30T06:40:44.302Z,33.63
2022-09-30T06:43:14.297Z,44.30
2022-09-30T06:45:42.228Z,31.43
2022-09-30T06:48:10.579Z,32.80
2022-09-30T06:50:39.095Z,30.80
2022-09-30T06:53:07.861Z,37.00
2022-09-30T06:55:39.016Z,37.20
2022-09-30T06:58:07.980Z,29.57
2022-09-30T07:00:37.507Z,29.10
2022-09-30T07:03:09.637Z,40.23
2022-09-30T07:05:37.261Z,29.43
2022-09-30T07:08:05.816Z,25.50
2022-09-30T07:10:33.771Z,26.70
2022-09-30T07:13:02.429Z,28.07
2022-09-30T07:15:30.071Z,23.53
2022-09-30T07:18:00.836Z,39.67
2022-09-30T07:20:28.393Z,29.40
2022-09-30T07:22:56.448Z,31.33
2022-09-30T07:25:24.628Z,27.87
2022-09-30T07:27:53.713Z,25.90
2022-09-30T07:30:27.057Z,23.83
2022-09-30T07:32:55.320Z,23.13
2022-09-30T07:35:24.244Z,23.47
2022-09-30T07:37:51.842Z,21.60
2022-09-30T07:40:19.532Z,26.90
2022-09-30T07:42:47.061Z,21.53
2022-09-30T07:45:19.623Z,24.77
2022-09-30T07:47:52.546Z,22.97
2022-09-30T07:50:21.386Z,24.50
2022-09-30T07:52:50.287Z,30.20
2022-09-30T07:55:18.277Z,25.70
2022-09-30T07:57:45.943Z,19.83
2022-09-30T08:00:40.636Z,20.60
2022-09-30T08:03:01.425Z,21.40
2022-09-30T08:05:28.987Z,25.03
2022-09-30T08:07:58.121Z,21.97
2022-09-30T08:10:26.431Z,21.43
2022-09-30T08:12:56.116Z,26.87
2022-09-30T08:15:26.736Z,23.77
2022-09-30T08:17:54.196Z,21.00
2022-09-30T08:20:22.717Z,23.13
2022-09-30T08:22:53.134Z,21.03
2022-09-30T08:25:22.244Z,21.90
2022-09-30T08:27:50.031Z,27.60
2022-09-30T08:30:18.289Z,20.57
2022-09-30T08:32:45.895Z,25.03
2022-09-30T08:35:13.485Z,22.07
2022-09-30T08:37:41.277Z,24.73
2022-09-30T08:40:12.093Z,27.93
2022-09-30T08:42:51.836Z,22.10
2022-09-30T08:45:27.771Z,20.20
2022-09-30T08:48:00.816Z,21.63
2022-09-30T08:50:31.382Z,21.50
2022-09-30T08:53:00.531Z,31.00
2022-09-30T08:55:32.412Z,21.07
2022-09-30T08:58:04.051Z,22.07
2022-09-30T09:00:31.763Z,19.43
2022-09-30T09:02:59.929Z,17.67
2022-09-30T09:05:33.452Z,18.87
2022-09-30T09:08:05.879Z,26.10
2022-09-30T09:10:40.271Z,21.00
2022-09-30T09:13:14.027Z,19.60
2022-09-30T09:15:47.463Z,22.17
2022-09-30T09:18:24.314Z,17.70
2022-09-30T09:20:56.170Z,14.30
2022-09-30T09:23:25.099Z,27.20
2022-09-30T09:25:55.858Z,15.13
2022-09-30T09:28:33.627Z,25.97
2022-09-30T09:31:01.731Z,19.00
2022-09-30T09:33:30.279Z,24.67
2022-09-30T09:36:06.481Z,13.83
2022-09-30T09:38:37.859Z,14.50
2022-09-30T09:41:15.027Z,17.57
2022-09-30T09:43:49.199Z,14.83
2022-09-30T09:46:20.737Z,15.00
2022-09-30T09:48:48.319Z,15.13
2022-09-30T09:51:20.410Z,16.87
2022-09-30T09:53:52.895Z,22.30
2022-09-30T09:56:22.145Z,17.90
2022-09-30T09:59:10.825Z,17.70
2022-09-30T10:01:39.821Z,17.60
2022-09-30T10:04:09.670Z,15.63
2022-09-30T10:06:45.011Z,17.97
2022-09-30T10:09:23.232Z,16.50
2022-09-30T10:11:50.850Z,19.53
2022-09-30T10:14:21.722Z,20.37
2022-09-30T10:16:49.751Z,13.57
2022-09-30T10:19:22.006Z,14.53
2022-09-30T10:21:51.866Z,14.67
2022-09-30T10:24:27.935Z,19.80
2022-09-30T10:26:55.494Z,14.30
2022-09-30T10:29:28.459Z,16.73
2022-09-30T10:31:59.809Z,15.53
2022-09-30T10:34:29.471Z,16.70
2022-09-30T10:36:57.909Z,18.00
2022-09-30T10:39:26.935Z,17.63
2022-09-30T10:42:02.693Z,13.37
2022-09-30T10:44:31.735Z,13.60
2022-09-30T10:47:00.596Z,12.87
2022-09-30T10:49:29.767Z,17.63
2022-09-30T10:51:58.218Z,23.03
2022-09-30T10:54:43.919Z,20.80
2022-09-30T10:57:15.139Z,24.67
2022-09-30T10:59:44.963Z,18.80
2022-09-30T11:02:19.022Z,14.97
2022-09-30T11:04:49.458Z,13.80
2022-09-30T11:07:21.821Z,10.23
2022-09-30T11:09:53.866Z,11.40
2022-09-30T11:12:24.340Z,9.97
2022-09-30T11:14:58.727Z,10.23
2022-09-30T11:17:33.250Z,8.30
2022-09-30T11:20:06.737Z,9.70
2022-09-30T11:22:40.215Z,8.70
2022-09-30T11:25:13.427Z,12.53
2022-09-30T11:27:46.253Z,10.67
2022-09-30T11:30:19.480Z,9.90
2022-09-30T11:32:53.256Z,11.23
2022-09-30T11:35:28.519Z,12.33
2022-09-30T11:38:05.317Z,8.77
2022-09-30T11:40:36.902Z,10.27
2022-09-30T11:43:09.539Z,10.87
2022-09-30T11:45:42.448Z,11.90
2022-09-30T11:48:18.370Z,12.70
2022-09-30T11:50:50.686Z,14.60
2022-09-30T11:53:24.446Z,10.30
2022-09-30T11:55:57.709Z,11.00
2022-09-30T11:58:40.979Z,11.10
2022-09-30T12:01:16.800Z,8.97
2022-09-30T12:03:46.554Z,11.73
2022-09-30T12:06:16.382Z,9.80
2022-09-30T12:08:48.573Z,10.17
2022-09-30T12:11:20.441Z,7.10
2022-09-30T12:13:51.768Z,11.27
2022-09-30T12:16:23.112Z,8.37
2022-09-30T12:18:55.324Z,8.20
2022-09-30T12:21:24.744Z,7.47
2022-09-30T12:23:55.923Z,6.63
2022-09-30T12:26:23.718Z,6.73
2022-09-30T12:29:10.624Z,6.63
2022-09-30T12:31:51.810Z,5.60
2022-09-30T12:34:28.809Z,5.50
2022-09-30T12:37:02.973Z,8.80
2022-09-30T12:39:48.432Z,8.53
2022-09-30T12:42:27.091Z,5.13
2022-09-30T12:45:14.657Z,10.00
2022-09-30T12:47:47.109Z,9.60
2022-09-30T12:50:17.131Z,6.60
2022-09-30T12:52:45.301Z,8.20
2022-09-30T12:55:20.092Z,6.57
2022-09-30T12:57:49.831Z,5.57
2022-09-30T13:00:18.924Z,6.07
2022-09-30T13:02:49.905Z,5.23
2022-09-30T13:05:37.906Z,5.97
2022-09-30T13:08:25.236Z,8.73
2022-09-30T13:10:58.657Z,12.23
2022-09-30T13:13:27.824Z,7.67
2022-09-30T13:16:02.909Z,5.97
2022-09-30T13:18:50.427Z,10.30
2022-09-30T13:21:21.401Z,6.13
2022-09-30T13:23:49.582Z,9.07
2022-09-30T13:26:36.057Z,6.20
2022-09-30T13:29:22.839Z,8.63
2022-09-30T13:32:09.296Z,11.70
2022-09-30T13:34:58.410Z,7.43
2022-09-30T13:37:40.470Z,10.73
2022-09-30T13:40:43.258Z,7.73
2022-09-30T13:43:14.920Z,7.20
2022-09-30T13:45:44.362Z,8.97
2022-09-30T13:48:14.114Z,8.93
2022-09-30T13:50:47.477Z,12.67
2022-09-30T13:53:20.302Z,8.17
2022-09-30T13:55:51.131Z,7.53
2022-09-30T13:58:28.762Z,7.30
2022-09-30T14:00:59.492Z,10.93
2022-09-30T14:03:38.632Z,7.00
2022-09-30T14:06:15.362Z,6.87
2022-09-30T14:08:51.484Z,15.20
2022-09-30T14:11:25.022Z,13.70
2022-09-30T14:13:57.866Z,9.93
2022-09-30T14:16:40.598Z,6.37
2022-09-30T14:19:28.796Z,9.57
2022-09-30T14:21:57.707Z,7.40
2022-09-30T14:24:27.569Z,8.77
2022-09-30T14:27:19.619Z,5.60
2022-09-30T14:29:52.432Z,7.77
2022-09-30T14:32:23.428Z,12.27
2022-09-30T14:34:52.073Z,7.70
2022-09-30T14:37:23.072Z,7.10
2022-09-30T14:39:52.299Z,6.77
2022-09-30T14:42:24.570Z,6.40
2022-09-30T14:44:54.238Z,5.60
2022-09-30T14:47:22.843Z,7.10
2022-09-30T14:49:50.819Z,6.47
2022-09-30T14:52:39.432Z,8.67
2022-09-30T14:55:22.015Z,6.77
2022-09-30T14:57:50.129Z,9.10
2022-09-30T15:00:23.222Z,5.70
2022-09-30T15:02:51.961Z,5.90
2022-09-30T15:05:19.526Z,6.03
2022-09-30T15:07:47.396Z,6.80
2022-09-30T15:10:19.919Z,6.00
2022-09-30T15:12:48.307Z,10.07
2022-09-30T15:15:35.052Z,8.00
2022-09-30T15:18:17.406Z,6.27
2022-09-30T15:20:45.216Z,7.20
2022-09-30T15:23:17.129Z,7.53
2022-09-30T15:25:46.422Z,10.20
2022-09-30T15:28:14.371Z,10.27
2022-09-30T15:30:43.444Z,13.57
2022-09-30T15:33:15.247Z,7.07
2022-09-30T15:35:42.784Z,10.07
2022-09-30T15:38:11.759Z,11.23
2022-09-30T15:40:49.133Z,21.50
2022-09-30T15:43:31.548Z,14.27
2022-09-30T15:46:16.398Z,10.37
2022-09-30T15:48:44.812Z,11.00
2022-09-30T15:51:24.635Z,10.10
2022-09-30T15:53:52.373Z,16.53
2022-09-30T15:56:24.840Z,11.40
2022-09-30T15:58:57.170Z,8.57
2022-09-30T16:01:26.692Z,12.90
2022-09-30T16:03:56.148Z,8.50
2022-09-30T16:06:26.611Z,13.27
2022-09-30T16:09:01.059Z,9.20
2022-09-30T16:11:29.932Z,16.40
2022-09-30T16:13:59.834Z,14.10
2022-09-30T16:16:28.308Z,14.10
2022-09-30T16:18:56.961Z,10.47
2022-09-30T16:21:29.268Z,8.37
2022-09-30T16:23:57.525Z,9.40
2022-09-30T16:26:30.097Z,15.30
2022-09-30T16:29:05.016Z,18.57
2022-09-30T16:31:36.039Z,10.80
2022-09-30T16:34:03.773Z,11.33
2022-09-30T16:36:31.736Z,15.70
2022-09-30T16:38:59.426Z,14.80
2022-09-30T16:41:27.581Z,14.07
2022-09-30T16:43:55.175Z,11.47
2022-09-30T16:46:24.110Z,11.50
2022-09-30T16:48:51.682Z,12.70
2022-09-30T16:51:19.223Z,13.23
2022-09-30T16:53:47.853Z,12.93
2022-09-30T16:56:17.159Z,11.97
2022-09-30T16:58:44.961Z,11.80
2022-09-30T17:01:17.578Z,13.10
2022-09-30T17:03:47.356Z,11.10
2022-09-30T17:06:17.122Z,10.53
2022-09-30T17:08:45.306Z,20.23
2022-09-30T17:11:12.876Z,16.60
2022-09-30T17:13:41.601Z,16.80
2022-09-30T17:16:09.375Z,19.60
2022-09-30T17:18:37.396Z,12.13
2022-09-30T17:21:06.438Z,17.03
2022-09-30T17:23:34.086Z,15.03
2022-09-30T17:26:04.509Z,18.63
2022-09-30T17:28:34.862Z,21.13
2022-09-30T17:31:02.527Z,26.00
2022-09-30T17:33:31.404Z,17.77
2022-09-30T17:36:00.497Z,23.00
2022-09-30T17:38:29.547Z,17.20
2022-09-30T17:41:14.898Z,19.33
2022-09-30T17:43:42.548Z,19.53
2022-09-30T17:46:10.207Z,27.63
2022-09-30T17:48:39.594Z,23.83
2022-09-30T17:51:07.798Z,22.63
2022-09-30T17:53:38.090Z,21.63
2022-09-30T17:56:09.474Z,20.77
2022-09-30T17:58:37.111Z,18.67
2022-09-30T18:01:07.694Z,24.63
2022-09-30T18:03:36.104Z,23.87
2022-09-30T18:06:03.992Z,19.10
2022-09-30T18:08:56.500Z,17.43
2022-09-30T18:11:24.878Z,20.00
2022-09-30T18:13:55.832Z,20.23
2022-09-30T18:16:24.638Z,17.87
2022-09-30T18:18:52.280Z,22.93
2022-09-30T18:21:21.558Z,23.90
2022-09-30T18:23:51.370Z,19.40
2022-09-30T18:26:20.720Z,28.53
2022-09-30T18:29:10.983Z,25.33
2022-09-30T18:31:39.624Z,18.37
2022-09-30T18:34:07.706Z,20.63
2022-09-30T18:36:37.449Z,25.97
2022-09-30T18:39:05.236Z,25.10
2022-09-30T18:41:35.933Z,23.87
2022-09-30T18:44:04.645Z,58.33
2022-09-30T18:46:33.038Z,30.87
2022-09-30T18:49:00.699Z,24.77
2022-09-30T18:51:29.248Z,20.03
2022-09-30T18:53:59.119Z,22.57
2022-09-30T18:56:32.294Z,21.10
2022-09-30T18:59:04.395Z,19.60
2022-09-30T19:04:47.246Z,27.93
2022-09-30T19:07:14.823Z,23.50
2022-09-30T19:09:42.470Z,21.70
2022-09-30T19:12:09.933Z,23.07
2022-09-30T19:14:39.751Z,26.27
2022-09-30T19:17:07.248Z,24.00
2022-09-30T19:19:36.077Z,34.03
2022-09-30T19:22:03.597Z,23.67
2022-09-30T19:24:31.192Z,27.97
2022-09-30T19:26:58.658Z,29.63
2022-09-30T19:29:26.562Z,27.70
2022-09-30T19:31:57.288Z,25.40
2022-09-30T19:34:32.247Z,27.10
2022-09-30T19:39:50.668Z,24.43
2022-09-30T19:42:18.256Z,26.30
2022-09-30T19:44:45.837Z,22.60
2022-09-30T19:47:14.738Z,19.90
2022-09-30T19:49:42.616Z,24.23
2022-09-30T19:52:18.795Z,22.40
2022-09-30T19:54:48.907Z,33.13
2022-09-30T19:57:16.458Z,20.90
2022-09-30T19:59:45.011Z,26.30
2022-09-30T20:02:12.940Z,30.20
2022-09-30T20:04:45.411Z,21.77
2022-09-30T20:07:16.391Z,24.67
2022-09-30T20:09:44.093Z,30.67
2022-09-30T20:12:11.735Z,24.07
2022-09-30T20:14:57.364Z,22.60
2022-09-30T20:17:28.822Z,25.60
2022-09-30T20:20:15.499Z,25.50
2022-09-30T20:22:43.171Z,29.57
2022-09-30T20:25:11.118Z,24.37
2022-09-30T20:27:42.930Z,25.00
2022-09-30T20:30:10.945Z,25.90
2022-09-30T20:32:38.536Z,25.90
2022-09-30T20:35:08.593Z,24.97
2022-09-30T20:37:36.142Z,27.20
2022-09-30T20:40:04.680Z,27.40
2022-09-30T20:42:32.967Z,26.17
2022-09-30T20:45:01.112Z,24.83
2022-09-30T20:47:28.878Z,35.50
2022-09-30T20:49:56.708Z,25.33
2022-09-30T20:52:25.934Z,27.43
2022-09-30T20:54:54.197Z,22.50
2022-09-30T20:57:21.852Z,47.77
2022-09-30T20:59:49.504Z,29.27
2022-09-30T21:02:17.165Z,28.63
2022-09-30T21:04:46.116Z,31.47
2022-09-30T21:07:15.086Z,26.77
2022-09-30T21:09:44.213Z,27.77
2022-09-30T21:12:14.517Z,25.80
2022-09-30T21:14:42.703Z,26.33
2022-09-30T21:17:10.852Z,27.53
2022-09-30T21:19:38.556Z,26.83
2022-09-30T21:22:06.086Z,26.13
2022-09-30T21:24:34.428Z,25.60
2022-09-30T21:27:06.150Z,24.33
2022-09-30T21:29:33.883Z,27.60
2022-09-30T21:32:01.800Z,27.17
2022-09-30T21:34:29.476Z,25.83
2022-09-30T21:36:56.939Z,25.33
2022-09-30T21:39:24.712Z,28.60
2022-09-30T21:41:52.218Z,26.77
2022-09-30T21:44:21.501Z,28.70
2022-09-30T21:46:50.344Z,27.73
2022-09-30T21:49:19.169Z,28.53
2022-09-30T21:51:47.031Z,25.87
2022-09-30T21:54:15.161Z,29.30
2022-09-30T21:56:43.745Z,30.27
2022-09-30T21:59:11.804Z,31.13
2022-09-30T22:01:40.965Z,31.87
2022-09-30T22:04:08.862Z,30.90
2022-09-30T22:06:36.381Z,28.20
2022-09-30T22:09:05.174Z,31.77
2022-09-30T22:11:33.512Z,32.10
2022-09-30T22:14:02.637Z,30.80
2022-09-30T22:16:31.053Z,25.80
2022-09-30T22:19:01.359Z,28.60
2022-09-30T22:21:31.847Z,26.10
2022-09-30T22:24:00.081Z,25.70
2022-09-30T22:26:28.188Z,25.33
2022-09-30T22:28:56.915Z,24.37
2022-09-30T22:31:25.518Z,23.73
2022-09-30T22:34:11.595Z,25.30
2022-09-30T22:36:58.129Z,25.33
2022-09-30T22:39:26.114Z,26.93
2022-09-30T22:41:54.351Z,26.80
2022-09-30T22:44:25.564Z,26.90
2022-09-30T22:46:53.842Z,28.03
2022-09-30T22:49:21.404Z,29.40
2022-09-30T22:51:52.054Z,24.93
2022-09-30T22:54:20.061Z,27.03
2022-09-30T22:56:50.304Z,24.10
2022-09-30T22:59:18.276Z,27.70
2022-09-30T23:01:46.467Z,23.93
2022-09-30T23:04:14.836Z,27.43
2022-09-30T23:06:42.789Z,27.00
2022-09-30T23:09:11.980Z,27.83
2022-09-30T23:11:41.377Z,26.80
2022-09-30T23:14:09.119Z,21.97
2022-09-30T23:16:37.330Z,24.00
2022-09-30T23:19:05.219Z,27.87
2022-09-30T23:21:33.444Z,27.43
2022-09-30T23:24:02.559Z,33.53
2022-09-30T23:26:32.270Z,23.27
2022-09-30T23:29:00.755Z,26.20
2022-09-30T23:31:29.011Z,27.30
2022-09-30T23:33:57.323Z,32.97
2022-09-30T23:36:26.896Z,26.63
2022-09-30T23:38:54.714Z,32.53
2022-09-30T23:41:22.487Z,28.87
2022-09-30T23:43:51.603Z,26.40
2022-09-30T23:46:19.843Z,25.70
2022-09-30T23:48:47.461Z,27.70
2022-09-30T23:51:15.188Z,27.53
2022-09-30T23:53:43.421Z,24.57
2022-09-30T23:56:12.481Z,28.43
2022-09-30T23:58:40.200Z,25.10
